createdAt,value
2023-04-13T00:00:06.162Z,7.7
2023-04-13T00:01:05.054Z,7.7
2023-04-13T00:02:06.602Z,7.7
2023-04-13T00:04:05.870Z,7.7
2023-04-13T00:05:06.374Z,7.7
2023-04-13T00:06:06.423Z,7.7
2023-04-13T00:07:06.718Z,7.7
2023-04-13T00:08:06.926Z,7.7
2023-04-13T00:09:06.130Z,7.7
2023-04-13T00:10:06.459Z,7.7
2023-04-13T00:11:06.718Z,7.7
2023-04-13T00:12:05.996Z,7.6
2023-04-13T00:13:06.114Z,7.7
2023-04-13T00:14:06.416Z,7.7
2023-04-13T00:15:07.038Z,7.6
2023-04-13T00:16:05.898Z,7.6
2023-04-13T00:17:07.305Z,7.6
2023-04-13T00:20:06.697Z,7.7
2023-04-13T00:21:06.540Z,7.6
2023-04-13T00:22:06.060Z,7.6
2023-04-13T00:23:06.183Z,7.6
2023-04-13T00:26:06.719Z,7.6
2023-04-13T00:27:05.820Z,7.6
2023-04-13T00:28:06.426Z,7.6
2023-04-13T00:29:06.128Z,7.6
2023-04-13T00:30:06.612Z,7.6
2023-04-13T00:31:06.619Z,7.6
2023-04-13T00:32:06.954Z,7.6
2023-04-13T00:33:06.196Z,7.6
2023-04-13T00:34:06.519Z,7.6
2023-04-13T00:35:06.696Z,7.6
2023-04-13T00:36:06.931Z,7.6
2023-04-13T00:40:06.184Z,7.6
2023-04-13T00:41:06.476Z,7.6
2023-04-13T00:42:06.802Z,7.6
2023-04-13T00:43:06.082Z,7.6
2023-04-13T00:44:06.114Z,7.6
2023-04-13T00:45:06.465Z,7.6
2023-04-13T00:46:06.882Z,7.6
2023-04-13T00:47:06.147Z,7.6
2023-04-13T00:48:06.516Z,7.6
2023-04-13T00:49:06.875Z,7.6
2023-04-13T00:50:06.154Z,7
2023-04-13T00:52:06.069Z,7.6
2023-04-13T00:53:08.242Z,7.6
2023-04-13T00:54:06.239Z,7.6
2023-04-13T00:55:06.771Z,7.6
2023-04-13T00:56:06.776Z,7.6
2023-04-13T00:57:05.921Z,7.5
2023-04-13T00:58:06.231Z,7.6
2023-04-13T00:59:06.486Z,7
2023-04-13T01:00:06.645Z,7.6
2023-04-13T01:01:06.977Z,7.6
2023-04-13T01:02:06.484Z,7.6
2023-04-13T01:03:07.330Z,7.6
2023-04-13T01:05:06.043Z,7.6
2023-04-13T01:06:06.649Z,7.6
2023-04-13T01:07:06.684Z,7.6
2023-04-13T01:08:06.369Z,7.5
2023-04-13T01:09:06.450Z,7.5
2023-04-13T01:10:06.737Z,7.2
2023-04-13T01:11:06.137Z,7.1
2023-04-13T01:12:06.472Z,7
2023-04-13T01:13:06.753Z,6.9
2023-04-13T01:14:06.927Z,6.8
2023-04-13T01:16:06.624Z,5
2023-04-13T01:17:05.355Z,6.6
2023-04-13T01:18:06.427Z,6.5
2023-04-13T01:19:06.808Z,6.4
2023-04-13T01:20:06.762Z,6.4
2023-04-13T01:21:06.909Z,6.4
2023-04-13T01:22:06.123Z,6.4
2023-04-13T01:23:06.528Z,6.3
2023-04-13T01:24:06.576Z,6.3
2023-04-13T01:25:06.841Z,6.3
2023-04-13T01:26:06.036Z,6.2
2023-04-13T01:27:06.194Z,6.3
2023-04-13T01:28:06.343Z,6.2
2023-04-13T01:29:06.478Z,6.2
2023-04-13T01:30:05.967Z,6.2
2023-04-13T01:31:06.302Z,5
2023-04-13T01:32:06.441Z,6.2
2023-04-13T01:33:06.938Z,6.2
2023-04-13T01:35:05.871Z,5
2023-04-13T01:36:06.366Z,5
2023-04-13T01:37:06.194Z,5
2023-04-13T01:38:06.399Z,6.1
2023-04-13T01:39:06.755Z,6.1
2023-04-13T01:40:06.906Z,6.2
2023-04-13T01:41:05.019Z,6.2
2023-04-13T01:42:06.215Z,6.2
2023-04-13T01:43:06.470Z,6.2
2023-04-13T01:44:06.819Z,6.2
2023-04-13T01:45:06.882Z,6
2023-04-13T01:46:06.189Z,6.2
2023-04-13T01:47:06.749Z,6.2
2023-04-13T01:48:06.960Z,6.2
2023-04-13T01:49:06.231Z,6.2
2023-04-13T01:50:06.240Z,6.2
2023-04-13T01:51:06.609Z,6
2023-04-13T01:52:06.647Z,6.2
2023-04-13T01:53:05.799Z,6.2
2023-04-13T01:54:06.347Z,6.2
2023-04-13T01:55:06.552Z,6.2
2023-04-13T01:56:06.388Z,6.2
2023-04-13T01:57:06.740Z,6.2
2023-04-13T01:58:06.750Z,6.2
2023-04-13T01:59:06.189Z,6.2
2023-04-13T02:00:06.437Z,6.2
2023-04-13T02:01:06.420Z,6.2
2023-04-13T02:02:06.602Z,6.2
2023-04-13T02:03:06.502Z,6.2
2023-04-13T02:04:07.916Z,6
2023-04-13T02:06:06.536Z,6.2
2023-04-13T02:07:06.766Z,6.2
2023-04-13T02:08:06.975Z,6.2
2023-04-13T02:09:06.033Z,6.2
2023-04-13T02:10:06.402Z,6.2
2023-04-13T02:11:06.535Z,6.1
2023-04-13T02:12:06.853Z,6.1
2023-04-13T02:13:06.110Z,6.1
2023-04-13T02:14:06.238Z,6.1
2023-04-13T02:15:06.481Z,6.1
2023-04-13T02:18:06.076Z,6.1
2023-04-13T02:19:06.348Z,6.1
2023-04-13T02:20:06.435Z,6.1
2023-04-13T02:21:06.467Z,6.1
2023-04-13T02:22:06.879Z,6.1
2023-04-13T02:23:05.929Z,6.1
2023-04-13T02:24:06.318Z,6.1
2023-04-13T02:25:06.373Z,6.1
2023-04-13T02:26:06.816Z,6.1
2023-04-13T02:27:06.223Z,6.1
2023-04-13T02:28:06.428Z,6.1
2023-04-13T02:29:06.582Z,6.1
2023-04-13T02:30:06.845Z,6.1
2023-04-13T02:31:05.841Z,6.1
2023-04-13T02:32:06.864Z,6.1
2023-04-13T02:33:07.081Z,6.1
2023-04-13T02:34:06.290Z,6.1
2023-04-13T02:35:06.539Z,6.1
2023-04-13T02:36:06.302Z,6.1
2023-04-13T02:39:06.469Z,6.1
2023-04-13T02:40:06.126Z,6.1
2023-04-13T02:41:06.249Z,6
2023-04-13T02:42:06.587Z,6
2023-04-13T02:43:06.947Z,6.1
2023-04-13T02:44:06.216Z,6.1
2023-04-13T02:45:06.499Z,6
2023-04-13T02:46:06.857Z,6.1
2023-04-13T02:47:06.661Z,6
2023-04-13T02:48:07.095Z,6
2023-04-13T02:49:06.206Z,6
2023-04-13T02:50:06.370Z,6
2023-04-13T02:51:05.585Z,6
2023-04-13T02:52:06.656Z,6
2023-04-13T02:53:06.019Z,6
2023-04-13T02:54:06.576Z,6
2023-04-13T02:59:05.877Z,6
2023-04-13T03:00:06.334Z,6
2023-04-13T03:01:06.756Z,6
2023-04-13T03:02:06.960Z,6
2023-04-13T03:03:06.044Z,6
2023-04-13T03:04:06.608Z,6
2023-04-13T03:05:07.068Z,6
2023-04-13T03:06:06.031Z,6
2023-04-13T03:07:06.208Z,6
2023-04-13T03:08:06.447Z,6
2023-04-13T03:09:06.800Z,6
2023-04-13T03:10:06.124Z,6
2023-04-13T03:11:06.365Z,6
2023-04-13T03:12:06.475Z,6
2023-04-13T03:13:05.950Z,6
2023-04-13T03:14:06.764Z,6
2023-04-13T03:15:06.977Z,6
2023-04-13T03:16:06.901Z,6
2023-04-13T03:18:06.495Z,6
2023-04-13T03:19:06.607Z,6
2023-04-13T03:20:06.129Z,5.9
2023-04-13T03:21:06.596Z,6
2023-04-13T03:22:06.745Z,6
2023-04-13T03:23:05.959Z,6
2023-04-13T03:24:06.303Z,6
2023-04-13T03:25:06.603Z,6
2023-04-13T03:29:06.109Z,5.9
2023-04-13T03:30:06.245Z,5.9
2023-04-13T03:31:06.358Z,5.9
2023-04-13T03:32:06.129Z,5
2023-04-13T03:33:06.536Z,5.9
2023-04-13T03:34:06.844Z,5.9
2023-04-13T03:35:05.950Z,5.9
2023-04-13T03:36:06.171Z,5.9
2023-04-13T03:37:06.465Z,5.9
2023-04-13T03:38:06.812Z,5.9
2023-04-13T03:39:06.166Z,5.8
2023-04-13T03:40:06.200Z,5.8
2023-04-13T03:41:06.441Z,5.8
2023-04-13T03:42:06.858Z,5.8
2023-04-13T03:43:05.996Z,5.8
2023-04-13T03:44:06.107Z,5.8
2023-04-13T03:45:06.447Z,5.8
2023-04-13T03:46:06.866Z,5.8
2023-04-13T03:47:05.969Z,5.8
2023-04-13T03:48:06.444Z,5.8
2023-04-13T03:51:06.208Z,5.8
2023-04-13T03:52:06.410Z,5.8
2023-04-13T03:53:06.759Z,5.8
2023-04-13T03:55:06.340Z,5.8
2023-04-13T03:56:06.558Z,5.8
2023-04-13T03:57:06.886Z,5.8
2023-04-13T03:58:06.016Z,5
2023-04-13T03:59:06.377Z,5.8
2023-04-13T04:00:06.774Z,5.7
2023-04-13T04:01:06.498Z,5.7
2023-04-13T04:02:06.926Z,5.7
2023-04-13T04:03:06.231Z,5.7
2023-04-13T04:04:07.582Z,5
2023-04-13T04:05:06.747Z,5.7
2023-04-13T04:07:06.873Z,5.7
2023-04-13T04:08:06.118Z,5
2023-04-13T04:09:06.369Z,5.7
2023-04-13T04:10:06.408Z,5.7
2023-04-13T04:11:06.742Z,5.7
2023-04-13T04:12:06.782Z,5.7
2023-04-13T04:13:05.949Z,5.7
2023-04-13T04:14:06.613Z,5.7
2023-04-13T04:15:06.690Z,5.7
2023-04-13T04:16:06.498Z,5.7
2023-04-13T04:17:06.902Z,5.6
2023-04-13T04:18:06.223Z,5.6
2023-04-13T04:20:06.712Z,5.7
2023-04-13T04:21:06.234Z,5.6
2023-04-13T04:22:05.770Z,5.6
2023-04-13T04:23:06.173Z,5.7
2023-04-13T04:24:06.449Z,5.6
2023-04-13T04:25:06.715Z,5.6
2023-04-13T04:26:06.776Z,5.6
2023-04-13T04:27:06.888Z,5.6
2023-04-13T04:28:06.021Z,5.6
2023-04-13T04:29:06.461Z,5.6
2023-04-13T04:30:06.389Z,5.6
2023-04-13T04:31:06.740Z,5.6
2023-04-13T04:33:06.595Z,5.6
2023-04-13T04:34:06.703Z,5.6
2023-04-13T04:35:06.915Z,5.6
2023-04-13T04:36:06.176Z,5.6
2023-04-13T04:37:20.862Z,5.6
2023-04-13T04:38:06.623Z,5.6
2023-04-13T04:39:07.061Z,5.6
2023-04-13T04:40:06.985Z,5.6
2023-04-13T04:42:06.182Z,5.6
2023-04-13T04:43:06.672Z,5.6
2023-04-13T04:44:06.728Z,5.6
2023-04-13T04:45:05.904Z,5.6
2023-04-13T04:46:06.522Z,5.6
2023-04-13T04:47:06.609Z,5.6
2023-04-13T04:48:06.412Z,5.6
2023-04-13T04:49:06.586Z,5.6
2023-04-13T04:50:06.183Z,5.6
2023-04-13T04:51:06.330Z,5.6
2023-04-13T04:52:05.207Z,5.5
2023-04-13T04:53:06.359Z,5.5
2023-04-13T04:55:05.344Z,5.5
2023-04-13T04:56:06.120Z,5.6
2023-04-13T04:57:06.777Z,5
2023-04-13T04:58:06.940Z,5
2023-04-13T04:59:06.072Z,5.5
2023-04-13T05:00:06.471Z,5.6
2023-04-13T05:01:07.042Z,5.5
2023-04-13T05:02:05.955Z,5.5
2023-04-13T05:03:06.539Z,5.6
2023-04-13T05:04:06.557Z,5.5
2023-04-13T05:05:06.970Z,5.6
2023-04-13T05:06:06.581Z,5.5
2023-04-13T05:07:06.677Z,5.5
2023-04-13T05:08:06.876Z,5.5
2023-04-13T05:09:06.062Z,5.6
2023-04-13T05:10:06.415Z,5.6
2023-04-13T05:14:06.091Z,5.6
2023-04-13T05:15:06.334Z,5.6
2023-04-13T05:16:06.346Z,5
2023-04-13T05:17:06.502Z,5.6
2023-04-13T05:18:06.906Z,5.6
2023-04-13T05:19:05.927Z,5.6
2023-04-13T05:20:06.257Z,5.6
2023-04-13T05:21:06.365Z,5
2023-04-13T05:22:06.687Z,5
2023-04-13T05:23:06.040Z,5.7
2023-04-13T05:24:05.659Z,5
2023-04-13T05:25:06.916Z,5.7
2023-04-13T05:26:06.384Z,5.7
2023-04-13T05:27:05.494Z,5.7
2023-04-13T05:28:06.742Z,5.7
2023-04-13T05:29:07.052Z,5.7
2023-04-13T05:30:06.120Z,5
2023-04-13T05:31:06.486Z,5.8
2023-04-13T05:32:07.251Z,5.8
2023-04-13T05:33:06.223Z,5.8
2023-04-13T05:34:06.386Z,5.8
2023-04-13T05:35:06.661Z,5.9
2023-04-13T05:36:06.056Z,5.9
2023-04-13T05:37:06.099Z,5.8
2023-04-13T05:38:06.457Z,5.9
2023-04-13T05:39:06.814Z,5.9
2023-04-13T05:40:05.935Z,5.9
2023-04-13T05:41:06.795Z,5.9
2023-04-13T05:42:06.854Z,6
2023-04-13T05:43:06.275Z,6
2023-04-13T05:44:06.554Z,6
2023-04-13T05:45:06.736Z,6
2023-04-13T05:46:06.586Z,6
2023-04-13T05:49:06.438Z,6
2023-04-13T05:50:06.119Z,6
2023-04-13T05:51:06.198Z,6
2023-04-13T05:52:06.512Z,6
2023-04-13T05:53:06.673Z,6
2023-04-13T05:54:07.107Z,6
2023-04-13T05:55:06.067Z,6
2023-04-13T05:56:06.363Z,6
2023-04-13T05:57:06.631Z,6
2023-04-13T05:58:06.836Z,6
2023-04-13T05:59:05.973Z,6.1
2023-04-13T06:00:06.307Z,6
2023-04-13T06:01:06.584Z,6
2023-04-13T06:02:07.238Z,6
2023-04-13T06:03:07.920Z,6.1
2023-04-13T06:04:06.608Z,6.1
2023-04-13T06:06:06.781Z,6.1
2023-04-13T06:07:07.041Z,6.1
2023-04-13T06:08:06.283Z,6.1
2023-04-13T06:09:06.678Z,6.2
2023-04-13T06:10:06.908Z,6.1
2023-04-13T06:11:06.226Z,6.1
2023-04-13T06:12:06.498Z,6.2
2023-04-13T06:13:06.732Z,6.2
2023-04-13T06:14:05.833Z,6.2
2023-04-13T06:15:06.161Z,6.2
2023-04-13T06:16:06.622Z,6.2
2023-04-13T06:20:05.969Z,6.3
2023-04-13T06:21:06.695Z,6.3
2023-04-13T06:22:06.403Z,6.3
2023-04-13T06:23:06.724Z,6.4
2023-04-13T06:24:06.796Z,6.4
2023-04-13T06:25:06.095Z,6.4
2023-04-13T06:26:08.156Z,6.4
2023-04-13T06:28:06.830Z,6.5
2023-04-13T06:29:06.028Z,6.5
2023-04-13T06:30:06.264Z,6.6
2023-04-13T06:31:06.950Z,6.6
2023-04-13T06:33:06.195Z,6.6
2023-04-13T06:34:06.455Z,6.7
2023-04-13T06:35:06.810Z,6.7
2023-04-13T06:36:06.882Z,6.7
2023-04-13T06:37:06.082Z,6.7
2023-04-13T06:38:06.104Z,6.7
2023-04-13T06:39:06.676Z,6.8
2023-04-13T06:40:06.707Z,6.8
2023-04-13T06:41:07.066Z,6.8
2023-04-13T06:42:06.158Z,6.8
2023-04-13T06:43:11.136Z,6.8
2023-04-13T06:44:06.741Z,6.8
2023-04-13T06:45:05.913Z,6.8
2023-04-13T06:46:06.496Z,6.8
2023-04-13T06:49:06.143Z,6.8
2023-04-13T06:50:06.309Z,6.8
2023-04-13T06:51:06.519Z,6.9
2023-04-13T06:52:06.659Z,6.9
2023-04-13T06:53:06.020Z,6.9
2023-04-13T06:54:06.349Z,6.9
2023-04-13T06:55:05.910Z,6.9
2023-04-13T06:56:06.307Z,6.9
2023-04-13T06:57:06.492Z,6.9
2023-04-13T06:58:06.734Z,7
2023-04-13T06:59:06.662Z,7
2023-04-13T07:00:08.490Z,7
2023-04-13T07:01:06.784Z,7
2023-04-13T07:02:07.270Z,7.1
2023-04-13T07:03:06.558Z,7.1
2023-04-13T07:04:06.745Z,7.2
2023-04-13T07:05:06.886Z,7.2
2023-04-13T07:06:06.489Z,7.2
2023-04-13T07:07:06.764Z,7.2
2023-04-13T07:08:05.952Z,7.2
2023-04-13T07:09:06.615Z,7.2
2023-04-13T07:10:06.886Z,7.3
2023-04-13T07:11:07.051Z,7.3
2023-04-13T07:12:06.023Z,7.4
2023-04-13T07:13:06.200Z,7.4
2023-04-13T07:14:06.504Z,7.4
2023-04-13T07:15:06.716Z,7.4
2023-04-13T07:16:06.930Z,7.4
2023-04-13T07:18:06.336Z,7.4
2023-04-13T07:19:06.558Z,7.4
2023-04-13T07:20:06.616Z,7.5
2023-04-13T07:21:06.247Z,7.5
2023-04-13T07:22:06.660Z,7.5
2023-04-13T07:23:06.636Z,7.6
2023-04-13T07:25:05.118Z,7.6
2023-04-13T07:26:06.867Z,7.6
2023-04-13T07:27:06.150Z,7.6
2023-04-13T07:28:06.616Z,7.7
2023-04-13T07:29:06.786Z,7
2023-04-13T07:30:06.207Z,7.7
2023-04-13T07:31:06.763Z,7.7
2023-04-13T07:32:06.844Z,7.8
2023-04-13T07:33:06.282Z,7.8
2023-04-13T07:34:06.462Z,7.9
2023-04-13T07:35:06.967Z,7.9
2023-04-13T07:36:06.005Z,8
2023-04-13T07:37:06.369Z,8
2023-04-13T07:38:06.528Z,8.1
2023-04-13T07:39:06.928Z,8.2
2023-04-13T07:40:06.032Z,8.3
2023-04-13T07:41:06.192Z,8.3
2023-04-13T07:42:06.650Z,7
2023-04-13T07:43:06.806Z,7
2023-04-13T07:44:06.903Z,8.5
2023-04-13T07:45:06.514Z,8.6
2023-04-13T07:46:06.837Z,8.6
2023-04-13T07:47:06.349Z,8.7
2023-04-13T07:48:06.427Z,8.8
2023-04-13T07:49:06.710Z,8.9
2023-04-13T07:50:06.842Z,9
2023-04-13T07:51:06.236Z,9.2
2023-04-13T07:52:06.671Z,8
2023-04-13T07:53:06.545Z,8
2023-04-13T07:55:06.718Z,9.7
2023-04-13T07:56:06.181Z,9.9
2023-04-13T07:57:06.607Z,9.9
2023-04-13T07:58:06.660Z,9.9
2023-04-13T07:59:06.933Z,10
2023-04-13T08:00:06.361Z,10.1
2023-04-13T08:01:06.613Z,10.2
2023-04-13T08:02:06.818Z,10.2
2023-04-13T08:03:06.184Z,10.2
2023-04-13T08:04:06.592Z,10.2
2023-04-13T08:05:07.270Z,10.3
2023-04-13T08:07:05.955Z,10.5
2023-04-13T08:08:06.388Z,10.6
2023-04-13T08:09:06.431Z,10.6
2023-04-13T08:10:06.690Z,10.7
2023-04-13T08:11:06.966Z,8
2023-04-13T08:12:05.936Z,10.9
2023-04-13T08:13:06.306Z,11
2023-04-13T08:14:06.692Z,11.1
2023-04-13T08:15:06.994Z,11.2
2023-04-13T08:16:05.983Z,11.2
2023-04-13T08:17:08.501Z,11.2
2023-04-13T08:18:06.594Z,11.4
2023-04-13T08:19:06.613Z,11.5
2023-04-13T08:22:06.562Z,11.6
2023-04-13T08:23:05.938Z,9
2023-04-13T08:24:06.344Z,11.6
2023-04-13T08:25:06.324Z,11.6
2023-04-13T08:26:06.855Z,11.8
2023-04-13T08:27:06.163Z,11.8
2023-04-13T08:28:06.274Z,11.8
2023-04-13T08:29:06.738Z,11.8
2023-04-13T08:30:07.041Z,11.6
2023-04-13T08:31:06.477Z,11.7
2023-04-13T08:32:07.010Z,11.6
2023-04-13T08:33:06.196Z,11.6
2023-04-13T08:34:06.371Z,11.5
2023-04-13T08:35:06.590Z,11.4
2023-04-13T08:36:06.763Z,11.4
2023-04-13T08:37:05.936Z,11.5
2023-04-13T08:38:06.265Z,11.5
2023-04-13T08:39:06.514Z,11.6
2023-04-13T08:40:06.870Z,11.6
2023-04-13T08:45:06.218Z,11.7
2023-04-13T08:46:06.302Z,11.7
2023-04-13T08:47:06.574Z,11.8
2023-04-13T08:48:07.264Z,11.8
2023-04-13T08:49:06.876Z,11.8
2023-04-13T08:51:06.872Z,12.1
2023-04-13T08:52:06.986Z,12.2
2023-04-13T08:53:06.629Z,12.2
2023-04-13T08:54:06.671Z,12.1
2023-04-13T08:55:06.975Z,12.1
2023-04-13T08:56:06.892Z,12.1
2023-04-13T08:57:06.989Z,12.1
2023-04-13T08:58:06.053Z,12.2
2023-04-13T08:59:06.378Z,12.4
2023-04-13T09:00:06.808Z,12.5
2023-04-13T09:03:14.454Z,12.9
2023-04-13T09:05:07.467Z,13.2
2023-04-13T09:06:06.115Z,13.2
2023-04-13T09:07:06.306Z,13.2
2023-04-13T09:08:06.591Z,13.6
2023-04-13T09:09:06.747Z,13.6
2023-04-13T09:10:07.058Z,13.6
2023-04-13T09:11:06.044Z,13.4
2023-04-13T09:12:06.121Z,13.2
2023-04-13T09:13:06.525Z,13.2
2023-04-13T09:14:05.511Z,13.2
2023-04-13T09:15:06.784Z,13.1
2023-04-13T09:16:06.984Z,13.1
2023-04-13T09:17:07.775Z,13.1
2023-04-13T09:20:06.876Z,12.8
2023-04-13T09:21:06.355Z,12.8
2023-04-13T09:22:06.618Z,12.8
2023-04-13T09:23:09.298Z,12.8
2023-04-13T09:26:06.311Z,12.8
2023-04-13T09:27:06.509Z,12.8
2023-04-13T09:28:06.873Z,12.8
2023-04-13T09:29:06.015Z,12.8
2023-04-13T09:30:06.408Z,12.8
2023-04-13T09:31:06.798Z,12.8
2023-04-13T09:32:06.791Z,12.7
2023-04-13T09:33:06.423Z,12.8
2023-04-13T09:34:06.782Z,12.9
2023-04-13T09:35:06.083Z,13
2023-04-13T09:36:06.405Z,13
2023-04-13T09:37:06.317Z,13
2023-04-13T09:38:07.090Z,13
2023-04-13T09:42:06.198Z,13.6
2023-04-13T09:43:06.267Z,13.8
2023-04-13T09:44:06.877Z,13.9
2023-04-13T09:45:06.179Z,13.9
2023-04-13T09:46:06.609Z,14
2023-04-13T09:47:06.954Z,14
2023-04-13T09:48:07.155Z,13.9
2023-04-13T09:49:06.039Z,13.9
2023-04-13T09:50:06.491Z,13.8
2023-04-13T09:51:06.735Z,13.7
2023-04-13T09:52:06.247Z,13.7
2023-04-13T09:53:06.556Z,13.7
2023-04-13T09:54:06.650Z,13.7
2023-04-13T09:55:06.072Z,13.7
2023-04-13T09:56:06.392Z,13.7
2023-04-13T09:57:06.477Z,13.8
2023-04-13T09:58:06.679Z,13.7
2023-04-13T09:59:05.718Z,13.7
2023-04-13T10:00:06.250Z,13.7
2023-04-13T10:01:05.943Z,13.7
2023-04-13T10:02:06.802Z,13.6
2023-04-13T10:03:06.800Z,13.6
2023-04-13T10:04:07.111Z,13.4
2023-04-13T10:07:07.080Z,13.2
2023-04-13T10:08:06.172Z,13.3
2023-04-13T10:09:06.433Z,13.4
2023-04-13T10:10:06.865Z,13.4
2023-04-13T10:11:06.655Z,13.5
2023-04-13T10:12:06.908Z,13.6
2023-04-13T10:13:06.153Z,13.6
2023-04-13T10:14:06.248Z,10
2023-04-13T10:15:06.618Z,13.4
2023-04-13T10:16:08.596Z,13.4
2023-04-13T10:17:06.688Z,13.4
2023-04-13T10:20:06.722Z,13.7
2023-04-13T10:21:06.907Z,13.8
2023-04-13T10:22:07.599Z,13.9
2023-04-13T10:23:06.804Z,13.9
2023-04-13T10:24:11.181Z,13.9
2023-04-13T10:26:06.466Z,13.9
2023-04-13T10:27:06.685Z,13.8
2023-04-13T10:28:06.242Z,13.8
2023-04-13T10:29:06.417Z,13.8
2023-04-13T10:30:06.675Z,13.8
2023-04-13T10:31:06.231Z,13.9
2023-04-13T10:32:06.703Z,14
2023-04-13T10:33:06.771Z,11
2023-04-13T10:35:06.563Z,14.1
2023-04-13T10:36:06.609Z,14
2023-04-13T10:39:06.099Z,14.1
2023-04-13T10:40:06.814Z,14
2023-04-13T10:41:08.297Z,14.2
2023-04-13T10:42:06.096Z,14.2
2023-04-13T10:43:06.450Z,14.1
2023-04-13T10:44:06.578Z,14.2
2023-04-13T10:45:06.853Z,14.2
2023-04-13T10:46:06.471Z,14.3
2023-04-13T10:47:06.881Z,14.2
2023-04-13T10:48:07.026Z,14.2
2023-04-13T10:49:05.969Z,14.3
2023-04-13T10:50:06.393Z,14.3
2023-04-13T10:51:06.755Z,14.3
2023-04-13T10:52:06.667Z,14.3
2023-04-13T10:53:05.983Z,14.4
2023-04-13T10:54:06.208Z,14.4
2023-04-13T10:55:06.499Z,14.4
2023-04-13T10:56:06.686Z,14.4
2023-04-13T10:57:06.772Z,14.3
2023-04-13T10:58:07.004Z,14.3
2023-04-13T11:02:06.185Z,14.2
2023-04-13T11:03:06.829Z,14.2
2023-04-13T11:04:16.109Z,14
2023-04-13T11:06:06.936Z,13.9
2023-04-13T11:07:06.272Z,13.9
2023-04-13T11:08:06.293Z,13.8
2023-04-13T11:09:07.842Z,13.8
2023-04-13T11:10:07.822Z,13.8
2023-04-13T11:11:06.083Z,13.9
2023-04-13T11:12:06.183Z,13.9
2023-04-13T11:13:06.484Z,13.8
2023-04-13T11:14:06.922Z,13.9
2023-04-13T11:15:06.213Z,13.9
2023-04-13T11:16:06.491Z,13.9
2023-04-13T11:17:06.820Z,13.9
2023-04-13T11:18:05.940Z,13.8
2023-04-13T11:19:06.355Z,13.8
2023-04-13T11:20:06.627Z,13.9
2023-04-13T11:21:10.441Z,14
2023-04-13T11:23:06.719Z,14
2023-04-13T11:24:07.095Z,14
2023-04-13T11:25:06.125Z,14
2023-04-13T11:26:06.930Z,14
2023-04-13T11:27:05.982Z,14
2023-04-13T11:28:06.480Z,13.9
2023-04-13T11:29:06.492Z,14
2023-04-13T11:30:06.908Z,14
2023-04-13T11:31:06.969Z,14.1
2023-04-13T11:32:06.257Z,14.1
2023-04-13T11:33:06.589Z,14.2
2023-04-13T11:34:06.567Z,14.2
2023-04-13T11:35:07.055Z,14.2
2023-04-13T11:36:06.227Z,14.3
2023-04-13T11:37:06.439Z,14.3
2023-04-13T11:38:06.705Z,14.2
2023-04-13T11:39:07.853Z,14.3
2023-04-13T11:40:05.979Z,14.3
2023-04-13T11:41:16.705Z,14.2
2023-04-13T11:43:06.111Z,14.2
2023-04-13T11:44:06.377Z,14.2
2023-04-13T11:45:06.649Z,14.2
2023-04-13T11:46:07.040Z,14.1
2023-04-13T11:47:06.127Z,14.1
2023-04-13T11:48:06.660Z,14.1
2023-04-13T11:49:06.488Z,14.1
2023-04-13T11:50:06.883Z,14
2023-04-13T11:51:06.966Z,11
2023-04-13T11:53:06.468Z,13.9
2023-04-13T11:54:06.949Z,13.9
2023-04-13T11:55:23.528Z,13.8
2023-04-13T11:57:06.816Z,13.7
2023-04-13T11:58:06.108Z,13.7
2023-04-13T11:59:06.412Z,13.7
2023-04-13T12:00:06.663Z,13.7
2023-04-13T12:01:09.975Z,13.7
2023-04-13T12:02:23.263Z,13.8
2023-04-13T12:05:08.127Z,14
2023-04-13T12:06:08.211Z,14
2023-04-13T12:07:06.785Z,14
2023-04-13T12:08:07.567Z,14.1
2023-04-13T12:09:14.950Z,14.1
2023-04-13T12:11:46.543Z,14.2
2023-04-13T12:12:50.255Z,14.2
2023-04-13T12:13:33.495Z,14.1
2023-04-13T12:16:21.785Z,14.1
2023-04-13T12:17:48.627Z,14
2023-04-13T12:18:18.071Z,14
2023-04-13T12:20:09.974Z,14.1
2023-04-13T12:21:06.782Z,14.1
2023-04-13T12:22:09.762Z,14.2
2023-04-13T12:23:15.228Z,11
2023-04-13T12:24:08.370Z,11
2023-04-13T12:25:08.820Z,14
2023-04-13T12:27:09.840Z,13.8
2023-04-13T12:29:06.811Z,13.6
2023-04-13T12:30:06.547Z,13.5
2023-04-13T12:31:06.876Z,13.4
2023-04-13T12:32:05.987Z,13.4
2023-04-13T12:33:06.491Z,13.3
2023-04-13T12:34:06.721Z,13.2
2023-04-13T12:35:06.889Z,13.2
2023-04-13T12:38:06.587Z,10
2023-04-13T12:39:07.149Z,13
2023-04-13T12:40:06.031Z,13
2023-04-13T12:41:06.280Z,13
2023-04-13T12:42:06.604Z,13
2023-04-13T12:43:06.661Z,13
2023-04-13T12:44:06.135Z,13
2023-04-13T12:45:06.452Z,13
2023-04-13T12:46:06.645Z,12.9
2023-04-13T12:47:06.218Z,12.9
2023-04-13T12:48:06.466Z,12.8
2023-04-13T12:49:07.336Z,12.7
2023-04-13T12:50:05.951Z,12.7
2023-04-13T12:51:06.096Z,12.7
2023-04-13T12:52:06.340Z,10
2023-04-13T12:53:06.435Z,12.6
2023-04-13T12:54:06.809Z,12.6
2023-04-13T12:55:07.010Z,12.6
2023-04-13T12:56:06.952Z,12.5
2023-04-13T13:00:05.937Z,12.3
2023-04-13T13:01:07.228Z,12.3
2023-04-13T13:02:06.382Z,12.1
2023-04-13T13:03:18.254Z,12
2023-04-13T13:05:07.145Z,12
2023-04-13T13:06:06.505Z,12
2023-04-13T13:07:06.879Z,12
2023-04-13T13:08:06.244Z,12
2023-04-13T13:09:06.707Z,11.9
2023-04-13T13:10:12.149Z,11.9
2023-04-13T13:12:06.510Z,11.9
2023-04-13T13:13:06.771Z,11.9
2023-04-13T13:14:06.574Z,11.9
2023-04-13T13:15:06.600Z,11.9
2023-04-13T13:16:06.291Z,11.8
2023-04-13T13:17:06.569Z,11.9
2023-04-13T13:18:06.860Z,11.9
2023-04-13T13:19:07.560Z,11.8
2023-04-13T13:20:06.276Z,11.8
2023-04-13T13:21:06.462Z,11.8
2023-04-13T13:22:06.578Z,11.8
2023-04-13T13:23:06.842Z,11.8
2023-04-13T13:24:06.096Z,11.8
2023-04-13T13:25:06.641Z,11.8
2023-04-13T13:26:28.733Z,11.7
2023-04-13T13:28:14.433Z,11.7
2023-04-13T13:29:06.968Z,11.6
2023-04-13T13:30:06.209Z,11.6
2023-04-13T13:31:06.276Z,11.6
2023-04-13T13:32:06.758Z,11.6
2023-04-13T13:33:07.013Z,11.5
2023-04-13T13:34:06.810Z,11.5
2023-04-13T13:35:06.227Z,11.5
2023-04-13T13:36:06.362Z,11.5
2023-04-13T13:37:06.680Z,11.4
2023-04-13T13:38:06.776Z,11.5
2023-04-13T13:39:07.049Z,11.4
2023-04-13T13:40:06.184Z,11.4
2023-04-13T13:41:06.709Z,11.3
2023-04-13T13:42:06.033Z,11.2
2023-04-13T13:43:06.575Z,11.2
2023-04-13T13:44:06.891Z,11.2
2023-04-13T13:45:06.207Z,11.1
2023-04-13T13:46:06.520Z,11.1
2023-04-13T13:47:06.772Z,11.1
2023-04-13T13:48:07.197Z,11.1
2023-04-13T13:49:06.281Z,11.1
2023-04-13T13:50:06.476Z,11
2023-04-13T13:51:09.490Z,11.1
2023-04-13T13:52:05.917Z,11
2023-04-13T13:53:08.783Z,10.8
2023-04-13T13:56:06.411Z,10.8
2023-04-13T13:57:05.633Z,10.7
2023-04-13T13:58:05.837Z,10.7
2023-04-13T13:59:06.105Z,10.7
2023-04-13T14:00:06.631Z,10.7
2023-04-13T14:01:06.285Z,10.6
2023-04-13T14:02:05.888Z,10.6
2023-04-13T14:03:06.262Z,10.6
2023-04-13T14:04:06.334Z,9
2023-04-13T14:05:06.573Z,10.5
2023-04-13T14:06:06.288Z,10.5
2023-04-13T14:07:05.916Z,10.6
2023-04-13T14:08:06.103Z,10.6
2023-04-13T14:09:06.344Z,10.6
2023-04-13T14:10:06.571Z,10.6
2023-04-13T14:11:05.878Z,10.7
2023-04-13T14:12:06.209Z,10.7
2023-04-13T14:13:06.507Z,10.7
2023-04-13T14:14:14.761Z,10.8
2023-04-13T14:15:05.887Z,10.8
2023-04-13T14:16:05.972Z,10.8
2023-04-13T14:17:06.094Z,10.8
2023-04-13T14:18:10.309Z,10.7
2023-04-13T14:19:06.534Z,10.7
2023-04-13T14:20:05.723Z,10.7
2023-04-13T14:21:06.406Z,10.7
2023-04-13T14:22:06.547Z,10.7
2023-04-13T14:23:05.656Z,10.7
2023-04-13T14:24:05.968Z,10.7
2023-04-13T14:25:06.393Z,10.7
2023-04-13T14:26:06.062Z,10.7
2023-04-13T14:27:06.234Z,10.7
2023-04-13T14:28:06.551Z,10.6
2023-04-13T14:29:05.546Z,10.7
2023-04-13T14:30:05.914Z,10.7
2023-04-13T14:31:06.101Z,10.6
2023-04-13T14:32:06.382Z,10.6
2023-04-13T14:33:05.954Z,10.6
2023-04-13T14:34:05.891Z,10.6
2023-04-13T14:35:06.075Z,10.5
2023-04-13T14:36:05.959Z,10.6
2023-04-13T14:37:06.584Z,10.5
2023-04-13T14:38:05.678Z,10.5
2023-04-13T14:39:05.969Z,10.4
2023-04-13T14:40:06.362Z,10.4
2023-04-13T14:41:05.710Z,10.5
2023-04-13T14:42:05.902Z,10.5
2023-04-13T14:43:05.969Z,10.5
2023-04-13T14:44:06.423Z,10.5
2023-04-13T14:45:05.544Z,10.5
2023-04-13T14:46:05.796Z,10.5
2023-04-13T14:47:08.609Z,10.5
2023-04-13T14:48:06.489Z,10.5
2023-04-13T14:49:05.798Z,10.5
2023-04-13T14:50:06.072Z,10.5
2023-04-13T14:51:06.455Z,10.5
2023-04-13T14:52:05.802Z,10.6
2023-04-13T14:53:05.808Z,10.6
2023-04-13T14:54:06.217Z,10.6
2023-04-13T14:55:06.496Z,10.6
2023-04-13T14:56:05.906Z,10.6
2023-04-13T14:57:06.049Z,10.6
2023-04-13T14:58:06.086Z,10.6
2023-04-13T14:59:06.478Z,10.7
2023-04-13T15:00:06.020Z,9
2023-04-13T15:01:06.228Z,10.6
2023-04-13T15:02:06.523Z,10.6
2023-04-13T15:03:05.848Z,10.6
2023-04-13T15:04:06.080Z,10.6
2023-04-13T15:05:06.642Z,10.6
2023-04-13T15:06:06.888Z,10.6
2023-04-13T15:07:05.776Z,10.6
2023-04-13T15:08:05.779Z,10.6
2023-04-13T15:09:06.147Z,10.6
2023-04-13T15:10:06.485Z,10.6
2023-04-13T15:11:06.476Z,10.5
2023-04-13T15:12:05.616Z,10.5
2023-04-13T15:13:05.967Z,10.5
2023-04-13T15:14:06.282Z,10.6
2023-04-13T15:15:06.538Z,10.6
2023-04-13T15:16:05.371Z,10.5
2023-04-13T15:17:05.901Z,10.6
2023-04-13T15:18:06.129Z,10.6
2023-04-13T15:19:06.365Z,10.6
2023-04-13T15:20:06.538Z,10.6
2023-04-13T15:21:05.615Z,10.6
2023-04-13T15:22:05.917Z,10.6
2023-04-13T15:23:06.104Z,10.6